This is the latest recevied weather packets stored in our database for station/object N4OGP-WX. If no packets are shown the sender has not sent any weather packets the latest 10 day(s).
| Time | Temp. | Humidity | Pressure | Rain* | Wind** | Luminosity | Snow |
|---|---|---|---|---|---|---|---|
| 1777399308 | 23.89° C | 42% | 1020.4 hPa | 0 mm | - | - | - |
| 1777399248 | 27.22° C | 76% | 1017.1 hPa | 0 mm | - | - | - |
| 1777399158 | 27.22° C | 76% | 1017.1 hPa | 0 mm | - | - | - |
| 1777399068 | 23.89° C | 42% | 1020.4 hPa | 0 mm | - | - | - |
| 1777399008 | 27.22° C | 77% | 1017 hPa | 0 mm | - | - | - |
| 1777398948 | 27.22° C | 77% | 1017 hPa | 0 mm | - | - | - |
| 1777398858 | 27.22° C | 77% | 1017 hPa | 0 mm | - | - | - |
| 1777398798 | 23.89° C | 42% | 1020.4 hPa | 0 mm | - | - | - |
| 1777398708 | 27.22° C | 77% | 1017 hPa | 0 mm | - | - | - |
| 1777398618 | 27.22° C | 77% | 1017 hPa | 0 mm | - | - | - |
| 1777398558 | 27.22° C | 76% | 1017.1 hPa | 0 mm | - | - | - |
| 1777398498 | 23.89° C | 42% | 1020.4 hPa | 0 mm | - | - | - |
| 1777398438 | 23.89° C | 42% | 1020.4 hPa | 0 mm | - | - | - |
| 1777398348 | 27.22° C | 77% | 1017.2 hPa | 0 mm | - | - | - |
| 1777398288 | 27.22° C | 77% | 1017.2 hPa | 0 mm | - | - | - |
| 1777398228 | 23.89° C | 42% | 1020.4 hPa | 0 mm | - | - | - |
| 1777398168 | 23.89° C | 42% | 1020.4 hPa | 0 mm | - | - | - |
| 1777398108 | 27.22° C | 77% | 1017.2 hPa | 0 mm | - | - | - |
| 1777398048 | 27.22° C | 77% | 1017.2 hPa | 0 mm | - | - | - |
| 1777397958 | 27.22° C | 77% | 1017.3 hPa | 0 mm | - | - | - |
| 1777397898 | 27.22° C | 77% | 1017.3 hPa | 0 mm | - | - | - |
| 1777397808 | 23.89° C | 42% | 1020.4 hPa | 0 mm | - | - | - |
| 1777397718 | 27.22° C | 76% | 1017.5 hPa | 0 mm | - | - | - |
| 1777397658 | 23.89° C | 42% | 1020.4 hPa | 0 mm | - | - | - |
| 1777397568 | 23.89° C | 42% | 1020.4 hPa | 0 mm | - | - | - |
* Rain latest hour (hover to see other rain measurements)
** Current wind speed in m/s (hover to see current wind gust speed)